Time;durP1;ratioP1;P1;durP2;ratioP2;P2;SDS_P1;SDS_P2;PMS_P1;PMS_P2;Temp;Humidity;BMP_temperature;BMP_pressure;BME280_temperature;BME280_humidity;BME280_pressure;Samples;Min_cycle;Max_cycle;Signal;HPM_P1;HPM_P2
2023/03/23 00:01:49;;;;;;;3.00;1.52;;;;;;;18.66;49.98;98956.66;5091689;28;20020;-62
2023/03/23 00:04:16;;;;;;;3.63;1.67;;;;;;;18.63;49.73;98952.41;5091860;28;20045;-63
2023/03/23 00:06:42;;;;;;;2.55;1.50;;;;;;;18.63;49.75;98957.69;5091633;28;20044;-62
2023/03/23 00:09:07;;;;;;;3.42;1.40;;;;;;;18.65;49.94;98953.16;5091216;28;20392;-63
2023/03/23 00:11:33;;;;;;;3.30;1.65;;;;;;;18.63;49.96;98947.09;5091780;28;20107;-63
2023/03/23 00:14:01;;;;;;;2.70;1.65;;;;;;;18.62;49.82;98949.84;5091669;28;20023;-63
2023/03/23 00:16:37;;;;;;;3.17;1.50;;;;;;;18.63;49.68;98940.97;5091550;28;20024;-63
2023/03/23 00:19:03;;;;;;;;;;;;;;;18.64;50.06;98937.38;5091817;28;20099;-62
2023/03/23 00:21:35;;;;;;;2.53;1.40;;;;;;;18.60;49.87;98930.59;5094004;28;19912;-63
2023/03/23 00:24:10;;;;;;;2.35;1.40;;;;;;;18.59;49.92;98931.53;5094801;28;20032;-62
2023/03/23 00:26:39;;;;;;;2.65;1.40;;;;;;;18.60;50.06;98931.41;5095304;28;20357;-63
2023/03/23 00:29:07;;;;;;;3.17;1.63;;;;;;;18.59;49.79;98939.47;5094848;28;20032;-63
2023/03/23 00:31:35;;;;;;;2.97;1.50;;;;;;;18.58;49.97;98932.47;5095114;28;20028;-63
2023/03/23 00:34:03;;;;;;;2.75;1.67;;;;;;;18.57;50.15;98931.63;5094836;28;20035;-63
2023/03/23 00:36:34;;;;;;;5.63;2.13;;;;;;;18.55;50.23;98925.56;5094611;28;20016;-63
2023/03/23 00:39:01;;;;;;;3.10;1.70;;;;;;;18.56;50.24;98934.34;5095067;28;20078;-63
2023/03/23 00:41:27;;;;;;;4.28;1.85;;;;;;;18.57;50.27;98925.47;5094919;28;20024;-63
2023/03/23 00:43:57;;;;;;;2.60;1.60;;;;;;;18.56;50.13;98935.22;5094914;28;20028;-63
2023/03/23 00:46:24;;;;;;;3.92;2.03;;;;;;;18.56;50.00;98934.34;5094876;28;20032;-62
2023/03/23 00:48:51;;;;;;;2.60;1.50;;;;;;;18.57;49.73;98930.75;5094545;28;20077;-63
2023/03/23 00:51:19;;;;;;;3.65;1.90;;;;;;;18.55;50.03;98927.38;5094040;28;20040;-63
2023/03/23 00:53:46;;;;;;;3.97;2.00;;;;;;;18.52;50.25;98929.25;5094696;28;20027;-63
2023/03/23 00:56:11;;;;;;;4.45;2.10;;;;;;;18.52;50.14;98917.81;5094488;28;20076;-63
2023/03/23 00:58:37;;;;;;;4.10;2.00;;;;;;;18.50;50.09;98909.16;5094702;28;20095;-63
2023/03/23 01:01:04;;;;;;;4.15;2.15;;;;;;;18.48;50.09;98919.81;5094531;28;20396;-63
2023/03/23 01:03:29;;;;;;;4.15;2.50;;;;;;;18.47;50.07;98907.53;5093231;28;20016;-64
2023/03/23 01:05:55;;;;;;;5.00;2.22;;;;;;;18.48;50.17;98911.03;5094044;28;20103;-63
2023/03/23 01:08:22;;;;;;;5.28;2.20;;;;;;;18.48;50.29;98906.59;5094275;28;20028;-65
2023/03/23 01:10:49;;;;;;;3.97;2.40;;;;;;;18.47;50.07;98904.91;5094302;28;20032;-63
2023/03/23 01:13:15;;;;;;;4.18;2.17;;;;;;;18.46;50.39;98913.75;5094174;28;20040;-63
2023/03/23 01:15:41;;;;;;;4.43;2.35;;;;;;;18.43;50.09;98908.66;5094191;28;20017;-63
2023/03/23 01:18:07;;;;;;;4.22;2.40;;;;;;;18.44;50.18;98897.16;5094064;28;20020;-63
2023/03/23 01:20:35;;;;;;;4.28;2.15;;;;;;;18.43;50.44;98898.09;5093516;28;20046;-63
2023/03/23 01:23:01;;;;;;;5.22;2.38;;;;;;;18.44;50.21;98899.78;5094099;28;20024;-63
2023/03/23 01:25:32;;;;;;;4.10;2.42;;;;;;;18.44;50.47;98906.88;5094244;28;20023;-64
2023/03/23 01:27:58;;;;;;;4.95;2.53;;;;;;;18.41;50.42;98899.97;5094301;28;20032;-64
2023/03/23 01:30:24;;;;;;;4.18;2.50;;;;;;;18.42;50.55;98906.97;5094689;28;20128;-63
2023/03/23 01:32:50;;;;;;;4.85;2.60;;;;;;;18.38;50.50;98908.06;5094189;28;20392;-62
2023/03/23 01:35:16;;;;;;;4.28;2.25;;;;;;;18.38;50.48;98906.28;5094137;28;20035;-64
2023/03/23 01:37:42;;;;;;;5.65;2.78;;;;;;;18.41;50.38;98905.25;5094329;28;20480;-64
2023/03/23 01:40:08;;;;;;;4.72;2.50;;;;;;;18.38;50.58;98902.78;5094073;28;20031;-63
2023/03/23 01:42:36;;;;;;;4.80;2.55;;;;;;;18.36;50.42;98902.03;5093962;28;20020;-63
2023/03/23 01:45:19;;;;;;;3.97;2.55;;;;;;;18.34;50.91;98898.63;5093784;28;20036;-63
2023/03/23 01:47:52;;;;;;;4.75;2.63;;;;;;;18.35;50.49;98889.78;5093473;28;20395;-63
2023/03/23 01:50:20;;;;;;;5.55;3.20;;;;;;;18.34;50.58;98895.97;5093205;28;20044;-63
2023/03/23 01:52:46;;;;;;;4.68;2.75;;;;;;;18.32;50.92;98889.94;5093497;28;20060;-63
2023/03/23 01:55:12;;;;;;;4.97;3.00;;;;;;;18.31;50.92;98889.09;5093473;28;20055;-63
2023/03/23 01:57:38;;;;;;;4.80;2.65;;;;;;;18.29;50.88;98885.69;5093516;28;20054;-63
2023/03/23 02:00:11;;;;;;;5.57;3.03;;;;;;;18.32;50.58;98882.03;5093225;28;20019;-63
2023/03/23 02:02:38;;;;;;;5.30;3.30;;;;;;;18.31;50.66;98880.34;5093294;28;20492;-63
2023/03/23 02:05:10;;;;;;;6.05;3.45;;;;;;;18.29;51.02;98874.28;5092974;28;20043;-63
2023/03/23 02:07:36;;;;;;;5.53;3.22;;;;;;;18.28;50.85;98878.72;5093209;28;20097;-63
2023/03/23 02:10:01;;;;;;;5.32;3.30;;;;;;;18.27;51.10;98876.16;5093271;28;20515;-63
2023/03/23 02:12:26;;;;;;;6.00;3.13;;;;;;;18.25;50.77;98879.75;5093183;28;20151;-64
2023/03/23 02:14:52;;;;;;;5.22;3.13;;;;;;;18.24;51.05;98883.34;5093087;28;20031;-63
2023/03/23 02:17:26;;;;;;;5.88;3.50;;;;;;;18.26;50.90;98880.59;5093180;28;20377;-63
2023/03/23 02:20:09;;;;;;;6.03;3.10;;;;;;;18.24;51.10;98885.97;5092689;28;20032;-62
2023/03/23 02:22:56;;;;;;;6.03;3.45;;;;;;;18.24;51.03;98872.78;5093041;28;20028;-63
2023/03/23 02:26:07;;;;;;;5.85;3.40;;;;;;;18.23;50.99;98872.84;5092757;28;20085;-65
2023/03/23 02:28:54;;;;;;;6.30;3.38;;;;;;;18.22;51.07;98866.72;5050171;28;20071;-63
2023/03/23 02:31:58;;;;;;;4.88;3.15;;;;;;;18.22;51.13;98869.34;5033478;28;20107;-64
2023/03/23 02:34:23;;;;;;;6.22;3.20;;;;;;;18.21;51.31;98862.38;5049888;28;20041;-65
2023/03/23 02:37:16;;;;;;;6.38;3.85;;;;;;;18.21;51.32;98861.53;5050393;28;20062;-63
2023/03/23 02:39:47;;;;;;;6.10;3.50;;;;;;;18.21;51.23;98865.00;5050305;28;20063;-63
2023/03/23 02:42:17;;;;;;;5.60;3.38;;;;;;;18.19;51.20;98856.34;5050137;28;20024;-65
2023/03/23 02:44:45;;;;;;;6.53;3.60;;;;;;;18.19;51.25;98860.75;5049086;28;20071;-65
2023/03/23 02:47:15;;;;;;;4.25;2.67;;;;;;;18.18;51.28;98861.72;5049690;28;20021;-65
2023/03/23 02:49:45;;;;;;;4.72;3.10;;;;;;;18.18;51.07;98852.00;5049783;28;20055;-65
2023/03/23 02:52:16;;;;;;;5.55;3.20;;;;;;;18.18;51.09;98859.94;5049952;28;20191;-65
2023/03/23 02:54:44;;;;;;;5.13;3.47;;;;;;;18.16;51.41;98861.78;5049933;28;20036;-63
2023/03/23 02:57:10;;;;;;;6.18;3.15;;;;;;;18.14;51.47;98868.09;5033046;28;20120;-63
2023/03/23 02:59:36;;;;;;;5.18;3.53;;;;;;;18.14;51.46;98866.31;5049870;28;20040;-63
2023/03/23 03:02:06;;;;;;;6.03;3.30;;;;;;;18.13;51.44;98864.63;5049423;28;20033;-62
2023/03/23 03:04:34;;;;;;;6.00;3.33;;;;;;;18.14;51.40;98866.31;5066672;28;20032;-63
2023/03/23 03:07:26;;;;;;;5.65;3.30;;;;;;;18.13;51.33;98859.34;5070676;28;20025;-63
2023/03/23 03:10:22;;;;;;;5.57;3.22;;;;;;;18.11;51.55;98846.22;5072114;28;20036;-63
2023/03/23 03:12:56;;;;;;;5.28;2.97;;;;;;;18.09;51.69;98842.84;5072055;28;20083;-65
2023/03/23 03:15:37;;;;;;;5.40;3.35;;;;;;;18.10;51.62;98848.94;5072199;28;20024;-64
2023/03/23 03:18:07;;;;;;;5.47;3.60;;;;;;;18.11;51.44;98845.38;5071621;28;20035;-65
2023/03/23 03:20:37;;;;;;;5.45;3.15;;;;;;;18.08;51.57;98850.84;5072113;28;20032;-65
2023/03/23 03:23:04;;;;;;;5.38;3.10;;;;;;;18.07;51.55;98843.88;5071838;28;20086;-65
2023/03/23 03:25:31;;;;;;;4.97;3.70;;;;;;;18.06;51.57;98847.44;5071998;28;20440;-65
2023/03/23 03:27:56;;;;;;;5.25;3.33;;;;;;;18.06;51.70;98842.16;5071970;28;20070;-65
2023/03/23 03:30:28;;;;;;;5.88;3.20;;;;;;;18.06;51.65;98837.72;5072048;28;20036;-65
2023/03/23 03:32:54;;;;;;;5.75;3.50;;;;;;;18.07;51.79;98841.22;5072111;28;20551;-65
2023/03/23 03:35:23;;;;;;;4.65;3.50;;;;;;;18.05;51.74;98845.69;5071819;28;20092;-65
2023/03/23 03:37:50;;;;;;;5.55;3.45;;;;;;;18.05;51.72;98840.41;5071926;28;20036;-65
2023/03/23 03:40:19;;;;;;;6.07;3.78;;;;;;;18.03;51.57;98832.59;5071776;28;20036;-65
2023/03/23 03:42:45;;;;;;;5.72;3.50;;;;;;;18.06;51.70;98836.88;5071687;28;20049;-66
2023/03/23 03:45:14;;;;;;;6.03;3.58;;;;;;;18.04;51.80;98838.72;5071315;28;20566;-65
2023/03/23 03:47:40;;;;;;;5.47;3.50;;;;;;;18.04;51.68;98830.78;5071603;28;20028;-66
2023/03/23 03:50:06;;;;;;;5.57;3.50;;;;;;;18.01;51.81;98838.91;5071540;28;20028;-64
2023/03/23 03:52:32;;;;;;;4.82;2.75;;;;;;;18.02;51.76;98835.31;5071854;28;20024;-64
2023/03/23 03:54:58;;;;;;;6.53;3.33;;;;;;;18.02;51.78;98840.59;5071851;28;20058;-63
2023/03/23 03:57:24;;;;;;;6.43;3.60;;;;;;;18.00;51.76;98845.13;5087461;28;20059;-65
2023/03/23 03:59:50;;;;;;;6.00;3.60;;;;;;;17.97;52.09;98849.63;5095348;28;20028;-65
2023/03/23 04:02:19;;;;;;;6.40;3.90;;;;;;;17.96;51.99;98842.66;5095830;28;20103;-65
2023/03/23 04:04:46;;;;;;;5.22;3.47;;;;;;;17.97;51.97;98849.63;5095717;28;20024;-65
2023/03/23 04:07:13;;;;;;;6.82;3.60;;;;;;;17.95;52.01;98846.25;5095519;28;20032;-65
2023/03/23 04:09:39;;;;;;;6.00;3.38;;;;;;;17.95;51.84;98854.16;5095259;28;20080;-65
2023/03/23 04:12:05;;;;;;;7.38;3.83;;;;;;;17.94;52.09;98852.47;5095200;28;20464;-64
2023/03/23 04:14:30;;;;;;;5.93;3.97;;;;;;;17.92;52.24;98854.31;5095236;28;20043;-65
2023/03/23 04:16:56;;;;;;;5.55;2.97;;;;;;;17.94;51.79;98854.25;5095569;28;20027;-65
2023/03/23 04:19:23;;;;;;;6.28;3.70;;;;;;;17.92;51.95;98854.31;5095430;28;20492;-65
2023/03/23 04:21:48;;;;;;;5.43;3.10;;;;;;;17.93;52.01;98858.66;5095528;28;20063;-64
2023/03/23 04:24:14;;;;;;;4.88;3.58;;;;;;;17.95;51.80;98856.81;5095253;28;20024;-64
2023/03/23 04:26:41;;;;;;;5.00;3.38;;;;;;;17.93;52.30;98853.38;5095305;28;20023;-65
2023/03/23 04:29:08;;;;;;;4.82;3.42;;;;;;;17.92;52.07;98856.97;5094590;28;20032;-64
2023/03/23 04:31:34;;;;;;;5.47;3.45;;;;;;;17.90;51.97;98858.84;5095269;28;20058;-65
2023/03/23 04:34:01;;;;;;;6.53;3.58;;;;;;;17.89;51.97;98865.06;5095086;28;20647;-65
2023/03/23 04:36:28;;;;;;;5.80;3.28;;;;;;;17.87;52.11;98872.22;5094980;28;20034;-66
2023/03/23 04:38:54;;;;;;;5.50;3.78;;;;;;;17.88;52.26;98871.31;5095018;28;20024;-65
2023/03/23 04:41:21;;;;;;;6.32;3.45;;;;;;;17.88;52.03;98876.59;5094807;28;20027;-65
2023/03/23 04:43:52;;;;;;;5.90;3.42;;;;;;;17.86;52.20;98889.00;5094534;28;20016;-65
2023/03/23 04:46:19;;;;;;;7.13;3.92;;;;;;;17.84;51.98;98889.06;5093755;28;20038;-65
2023/03/23 04:48:45;;;;;;;5.07;3.17;;;;;;;17.87;51.99;98901.25;5094424;28;20119;-65
2023/03/23 04:51:12;;;;;;;5.97;3.05;;;;;;;17.88;52.20;98904.75;5094770;28;20086;-64
2023/03/23 04:53:37;;;;;;;5.25;3.38;;;;;;;17.89;52.06;98912.59;5094847;28;20020;-65
2023/03/23 04:56:03;;;;;;;5.40;3.05;;;;;;;17.87;51.97;98906.53;5094226;28;20561;-65
2023/03/23 04:58:29;;;;;;;5.38;3.42;;;;;;;17.88;51.77;98924.09;5094363;28;20035;-65
2023/03/23 05:00:55;;;;;;;5.30;3.25;;;;;;;17.89;51.92;98917.00;5094535;28;20020;-65
2023/03/23 05:03:21;;;;;;;4.90;3.28;;;;;;;17.88;51.87;98916.16;5094294;28;20111;-65
2023/03/23 05:05:51;;;;;;;5.40;3.00;;;;;;;17.88;51.85;98929.38;5094397;28;20024;-64
2023/03/23 05:08:21;;;;;;;4.40;3.28;;;;;;;17.87;52.06;98925.00;5093497;28;20032;-65
2023/03/23 05:10:54;;;;;;;5.75;3.40;;;;;;;17.87;52.04;98922.34;5094578;28;20028;-65
2023/03/23 05:13:20;;;;;;;5.78;3.13;;;;;;;17.88;52.19;98924.09;5093807;28;20016;-65
2023/03/23 05:15:46;;;;;;;5.05;3.17;;;;;;;17.88;51.96;98926.72;5094383;28;20031;-65
2023/03/23 05:18:12;;;;;;;4.70;3.47;;;;;;;17.87;51.82;98927.63;5094164;28;20148;-64
2023/03/23 05:20:38;;;;;;;4.60;3.00;;;;;;;17.90;51.83;98924.84;5094262;28;20037;-65
2023/03/23 05:23:05;;;;;;;5.55;3.45;;;;;;;17.90;52.17;98931.91;5094034;28;20564;-65
2023/03/23 05:25:32;;;;;;;5.50;3.20;;;;;;;17.89;52.19;98936.34;5094064;28;20061;-65
2023/03/23 05:27:58;;;;;;;5.10;3.50;;;;;;;17.88;52.05;98933.78;5093784;28;20028;-65
2023/03/23 05:30:24;;;;;;;4.40;3.25;;;;;;;17.86;51.92;98936.50;5093974;28;20059;-65
2023/03/23 05:32:50;;;;;;;4.68;3.25;;;;;;;17.88;51.97;98945.22;5094006;28;20059;-65
2023/03/23 05:35:17;;;;;;;6.53;3.67;;;;;;;17.84;51.94;98935.75;5093882;28;20032;-65
2023/03/23 05:37:43;;;;;;;5.82;3.75;;;;;;;17.83;52.17;98940.16;5093780;28;20157;-65
2023/03/23 05:40:11;;;;;;;5.30;3.58;;;;;;;17.85;52.17;98935.66;5093516;28;20513;-65
2023/03/23 05:42:39;;;;;;;5.35;3.63;;;;;;;17.84;52.26;98935.75;5093585;28;20095;-65
2023/03/23 05:45:06;;;;;;;6.70;3.75;;;;;;;17.82;52.13;98941.09;5094504;28;20031;-66
2023/03/23 05:47:32;;;;;;;5.03;3.63;;;;;;;17.82;52.13;98945.56;5094397;28;20484;-65
2023/03/23 05:49:58;;;;;;;7.13;3.90;;;;;;;17.83;52.19;98936.69;5093731;28;20037;-66
2023/03/23 05:52:24;;;;;;;6.07;3.53;;;;;;;17.83;52.22;98936.69;5094075;28;20024;-65
2023/03/23 05:54:50;;;;;;;5.50;3.72;;;;;;;17.82;51.92;98935.00;5094351;28;20070;-66
2023/03/23 05:57:16;;;;;;;6.20;3.40;;;;;;;17.81;52.32;98939.41;5093097;28;20376;-65
2023/03/23 05:59:43;;;;;;;6.03;3.65;;;;;;;17.81;52.16;98943.81;5093656;28;20034;-66
2023/03/23 06:02:08;;;;;;;5.65;3.42;;;;;;;17.81;52.37;98949.97;5093562;28;20047;-65
2023/03/23 06:04:34;;;;;;;6.25;3.80;;;;;;;17.85;52.22;98950.63;5091967;28;20448;-65
2023/03/23 06:07:03;;;;;;;6.28;3.83;;;;;;;17.82;52.15;98958.75;5093315;28;20047;-65
2023/03/23 06:09:29;;;;;;;5.68;3.80;;;;;;;17.81;52.14;98944.69;5093175;28;20032;-65
2023/03/23 06:11:54;;;;;;;5.80;3.85;;;;;;;17.80;52.02;98952.69;5092841;28;20031;-65
2023/03/23 06:14:21;;;;;;;5.53;3.60;;;;;;;17.81;52.02;98949.09;5093252;28;20099;-65
2023/03/23 06:16:47;;;;;;;7.43;3.95;;;;;;;17.81;52.16;98943.81;5093014;28;20031;-65
2023/03/23 06:19:12;;;;;;;5.93;3.58;;;;;;;17.82;52.23;98956.09;5092939;28;20031;-64
2023/03/23 06:21:38;;;;;;;5.40;3.78;;;;;;;17.81;52.38;98954.38;5093046;28;20016;-65
2023/03/23 06:24:04;;;;;;;5.07;3.50;;;;;;;17.81;52.08;98959.66;5092968;28;20027;-62
2023/03/23 06:26:38;;;;;;;6.20;3.85;;;;;;;17.80;52.36;98961.47;5092778;28;20016;-63
2023/03/23 06:29:12;;;;;;;5.38;3.35;;;;;;;17.82;52.03;98966.66;5092663;28;20047;-65
2023/03/23 06:31:51;;;;;;;5.53;3.80;;;;;;;17.82;51.90;98977.22;5092880;28;20052;-64
2023/03/23 06:34:16;;;;;;;7.15;4.28;;;;;;;17.83;52.03;98989.47;5092923;28;20461;-65
2023/03/23 06:36:44;;;;;;;5.25;3.33;;;;;;;17.84;51.93;99002.56;5092786;28;20044;-65
2023/03/23 06:39:10;;;;;;;5.03;3.75;;;;;;;17.83;52.01;99010.59;5092310;28;20016;-65
2023/03/23 06:41:35;;;;;;;5.38;3.60;;;;;;;17.83;52.20;99010.59;5091314;28;20028;-63
2023/03/23 06:44:01;;;;;;;5.45;3.50;;;;;;;17.83;52.30;99015.88;5092466;28;20027;-63
2023/03/23 06:46:27;;;;;;;5.20;3.67;;;;;;;17.82;52.28;99003.63;5092531;28;20059;-62
2023/03/23 06:48:53;;;;;;;4.80;3.45;;;;;;;17.83;51.96;99005.31;5092404;28;20035;-62
2023/03/23 06:51:19;;;;;;;4.82;3.15;;;;;;;17.86;52.17;99005.13;5092368;28;20043;-63
2023/03/23 06:53:44;;;;;;;5.10;3.70;;;;;;;17.86;52.21;99013.03;5091984;28;20020;-62
2023/03/23 06:56:11;;;;;;;6.80;4.05;;;;;;;17.90;51.92;99021.63;5092519;28;20023;-64
2023/03/23 06:58:37;;;;;;;5.22;3.50;;;;;;;17.87;51.96;99022.66;5092416;28;20024;-63
2023/03/23 07:01:03;;;;;;;5.90;3.90;;;;;;;17.87;52.19;99025.31;5092238;28;20549;-63
2023/03/23 07:03:30;;;;;;;5.78;3.88;;;;;;;17.88;51.99;99024.38;5092377;28;20099;-63
2023/03/23 07:05:57;;;;;;;5.53;3.55;;;;;;;17.88;52.11;99029.66;5092341;28;20387;-63
2023/03/23 07:08:22;;;;;;;5.75;4.00;;;;;;;17.88;51.88;99040.22;5091802;28;20024;-62
2023/03/23 07:10:52;;;;;;;5.07;3.78;;;;;;;17.92;52.09;99043.53;5092427;28;20020;-65
2023/03/23 07:13:18;;;;;;;4.97;3.40;;;;;;;17.90;52.15;99027.78;5092159;28;20553;-65
2023/03/23 07:15:43;;;;;;;5.28;3.72;;;;;;;17.89;51.92;99041.94;5092110;28;20028;-65
2023/03/23 07:18:09;;;;;;;5.45;3.88;;;;;;;17.89;52.11;99041.06;5092233;28;20081;-65
2023/03/23 07:20:35;;;;;;;4.90;3.35;;;;;;;17.89;51.96;99035.78;5092171;28;20120;-65
2023/03/23 07:23:02;;;;;;;5.35;3.88;;;;;;;17.89;52.00;99041.94;5091717;28;20052;-65
2023/03/23 07:25:27;;;;;;;5.63;3.67;;;;;;;17.90;51.84;99046.25;5092140;28;20032;-64
2023/03/23 07:27:53;;;;;;;6.22;3.88;;;;;;;17.92;51.87;99051.47;5092155;28;20514;-65
2023/03/23 07:30:18;;;;;;;5.75;3.70;;;;;;;17.91;52.04;99050.59;5092759;28;20107;-65
2023/03/23 07:32:43;;;;;;;4.95;3.80;;;;;;;17.92;52.18;99052.28;5096231;28;20028;-65
2023/03/23 07:35:09;;;;;;;5.70;3.75;;;;;;;17.90;51.88;99054.19;5096279;28;20056;-65
2023/03/23 07:37:35;;;;;;;5.38;3.78;;;;;;;17.94;52.14;99066.28;5095885;28;20184;-65
2023/03/23 07:40:14;;;;;;;5.80;3.78;;;;;;;17.91;52.11;99061.16;5095960;28;20039;-65
2023/03/23 07:42:40;;;;;;;5.70;3.78;;;;;;;17.92;52.25;99062.84;5096194;28;20077;-65
2023/03/23 07:45:06;;;;;;;7.03;4.43;;;;;;;17.93;51.82;99059.28;5095990;28;20058;-62
2023/03/23 07:47:32;;;;;;;6.18;4.10;;;;;;;17.91;51.96;99071.72;5095958;28;20027;-63
2023/03/23 07:49:57;;;;;;;6.03;4.10;;;;;;;17.89;51.95;99068.31;5095595;28;20028;-66
2023/03/23 07:52:23;;;;;;;5.13;4.00;;;;;;;17.92;51.88;99078.69;5095724;28;20036;-64
2023/03/23 07:54:49;;;;;;;5.20;4.00;;;;;;;17.93;52.04;99085.66;5095966;28;20035;-65
2023/03/23 07:57:14;;;;;;;5.63;4.00;;;;;;;17.96;51.76;99080.25;5095613;28;20024;-65
2023/03/23 07:59:40;;;;;;;5.78;4.28;;;;;;;17.90;51.97;99080.56;5095929;28;20115;-65
2023/03/23 08:02:09;;;;;;;6.38;4.28;;;;;;;17.91;51.92;99077.00;5095553;28;20505;-64
2023/03/23 08:04:37;;;;;;;7.05;3.95;;;;;;;17.91;52.14;99077.00;5095476;28;20031;-65
2023/03/23 08:07:04;;;;;;;5.38;4.00;;;;;;;17.92;52.17;99078.69;5095219;28;20035;-65
2023/03/23 08:09:30;;;;;;;5.57;4.18;;;;;;;17.90;52.22;99077.94;5095562;28;20672;-64
2023/03/23 08:11:55;;;;;;;5.85;4.13;;;;;;;17.90;52.29;99067.38;5095453;28;20111;-63
2023/03/23 08:14:21;;;;;;;6.07;4.30;;;;;;;17.91;52.10;99061.16;5095645;28;20024;-65
2023/03/23 08:16:48;;;;;;;6.10;4.53;;;;;;;17.91;52.23;99055.88;5095423;28;20081;-65
2023/03/23 08:19:13;;;;;;;6.10;4.57;;;;;;;17.94;52.21;99045.16;5095221;28;20108;-65
2023/03/23 08:21:39;;;;;;;7.22;5.05;;;;;;;17.95;52.40;99044.22;5095076;28;20466;-65
2023/03/23 08:24:05;;;;;;;7.53;5.32;;;;;;;17.97;52.72;99050.25;5095019;28;20020;-65
2023/03/23 08:26:30;;;;;;;8.20;4.65;;;;;;;17.98;52.57;99046.69;5095251;28;20089;-65
2023/03/23 08:28:57;;;;;;;6.78;4.85;;;;;;;18.02;52.50;99041.25;5095108;28;20476;-65
2023/03/23 08:31:23;;;;;;;6.93;5.07;;;;;;;18.08;52.05;99040.94;5095049;28;20391;-63
2023/03/23 08:33:48;;;;;;;6.57;4.80;;;;;;;18.08;52.40;99052.38;5095304;28;20028;-63
2023/03/23 08:36:14;;;;;;;7.50;4.95;;;;;;;18.06;52.24;99048.09;5094870;28;20024;-62
2023/03/23 08:38:39;;;;;;;6.47;4.68;;;;;;;18.10;52.43;99044.34;5094924;28;20431;-63
2023/03/23 08:41:07;;;;;;;7.45;4.85;;;;;;;18.13;52.20;99051.22;5094807;28;20454;-63
2023/03/23 08:43:34;;;;;;;7.07;4.63;;;;;;;18.13;52.15;99060.03;5093735;28;20463;-64
2023/03/23 08:45:59;;;;;;;7.43;5.05;;;;;;;18.16;52.15;99064.28;5094871;28;20053;-63
2023/03/23 08:48:25;;;;;;;7.05;5.18;;;;;;;18.18;52.40;99079.09;5094716;28;20028;-65
2023/03/23 08:50:51;;;;;;;6.28;4.70;;;;;;;18.20;52.29;99079.88;5094245;28;20079;-64
2023/03/23 08:53:18;;;;;;;6.97;5.03;;;;;;;18.20;52.10;99077.22;5094596;28;20460;-65
2023/03/23 08:55:44;;;;;;;7.93;4.57;;;;;;;18.21;52.38;99072.81;5094725;28;20024;-64
2023/03/23 08:58:09;;;;;;;6.78;4.90;;;;;;;18.21;52.24;99078.91;5094562;28;20099;-63
2023/03/23 09:00:35;;;;;;;6.53;5.15;;;;;;;18.20;52.26;99082.50;5094653;28;20044;-63
2023/03/23 09:03:01;;;;;;;6.32;5.05;;;;;;;18.21;52.21;99083.38;5094474;28;20034;-63
2023/03/23 09:05:28;;;;;;;6.68;5.10;;;;;;;18.22;52.13;99080.63;5094300;28;20472;-62
2023/03/23 09:07:58;;;;;;;6.90;4.75;;;;;;;18.23;52.50;99098.19;5094251;28;20043;-63
2023/03/23 09:10:25;;;;;;;6.93;4.43;;;;;;;18.23;52.17;99082.34;5094451;28;20024;-63
2023/03/23 09:12:52;;;;;;;6.47;4.53;;;;;;;18.25;52.24;99088.38;5094429;28;20039;-63
2023/03/23 09:15:18;;;;;;;6.40;4.85;;;;;;;18.27;52.47;99087.44;5094326;28;20035;-63
2023/03/23 09:17:49;;;;;;;7.22;5.03;;;;;;;18.29;52.37;99085.56;5094400;28;20024;-63
2023/03/23 09:20:18;;;;;;;6.70;5.05;;;;;;;18.29;52.31;99090.84;5094123;28;20027;-63
2023/03/23 09:22:45;;;;;;;6.53;4.95;;;;;;;18.32;52.18;99088.03;5094307;28;20024;-62
2023/03/23 09:25:14;;;;;;;6.93;5.20;;;;;;;18.31;52.00;99083.69;5094266;28;20553;-63
2023/03/23 09:27:40;;;;;;;7.43;4.85;;;;;;;18.32;52.23;99080.13;5092785;28;20030;-63
2023/03/23 09:30:10;;;;;;;7.00;5.40;;;;;;;18.30;52.23;99076.72;5093971;28;20040;-62
2023/03/23 09:32:36;;;;;;;6.95;4.93;;;;;;;18.33;52.48;99077.41;5093881;28;20067;-62
2023/03/23 09:35:04;;;;;;;6.05;4.50;;;;;;;18.33;52.30;99071.25;5093619;28;20546;-63
2023/03/23 09:37:30;;;;;;;7.07;4.85;;;;;;;18.34;52.10;99078.22;5093887;28;20023;-63
2023/03/23 09:39:55;;;;;;;6.63;4.70;;;;;;;18.33;52.40;99076.53;5093743;28;20468;-62
2023/03/23 09:42:56;;;;;;;6.38;4.35;;;;;;;18.34;52.16;99078.22;5093848;28;20030;-62
2023/03/23 09:45:38;;;;;;;5.78;4.43;;;;;;;18.37;52.18;99078.06;5051151;28;20037;-63
2023/03/23 09:48:37;;;;;;;6.97;4.90;;;;;;;18.36;52.08;99093.06;5050509;28;20029;-65
2023/03/23 09:51:18;;;;;;;7.38;4.97;;;;;;;18.38;52.50;99090.34;5050945;28;20084;-63
2023/03/23 09:53:49;;;;;;;5.47;4.63;;;;;;;18.38;52.34;99098.25;5050728;28;20025;-62
2023/03/23 09:56:16;;;;;;;6.68;4.90;;;;;;;18.41;52.53;99098.09;5050822;28;20040;-63
2023/03/23 09:59:03;;;;;;;6.22;4.63;;;;;;;18.38;52.53;99095.63;5051124;28;20040;-63
2023/03/23 10:01:34;;;;;;;6.75;4.72;;;;;;;18.40;52.22;99091.09;5051016;28;20036;-63
2023/03/23 10:04:32;;;;;;;8.05;4.90;;;;;;;18.42;52.27;99099.81;5051176;28;20479;-64
2023/03/23 10:07:15;;;;;;;9.02;5.20;;;;;;;18.43;52.26;99098.00;5011709;28;20033;-63
2023/03/23 10:09:42;;;;;;;9.20;5.35;;;;;;;18.42;52.52;99097.16;5011580;28;20038;-62
2023/03/23 10:12:20;;;;;;;5.95;4.68;;;;;;;18.44;52.55;99100.56;5011521;28;20043;-64
2023/03/23 10:14:57;;;;;;;5.93;4.50;;;;;;;18.46;52.21;99095.19;5011531;28;20034;-63
2023/03/23 10:17:29;;;;;;;7.07;4.55;;;;;;;18.47;52.58;99083.69;5010787;28;20037;-63
2023/03/23 10:20:07;;;;;;;7.50;4.85;;;;;;;18.46;52.15;99088.09;5012606;28;20052;-63
2023/03/23 10:22:37;;;;;;;7.95;4.70;;;;;;;18.47;52.40;99081.91;5030516;28;20033;-62
2023/03/23 10:25:18;;;;;;;7.55;4.85;;;;;;;18.48;52.45;99088.91;5030567;28;20449;-62
2023/03/23 10:28:10;;;;;;;7.80;4.72;;;;;;;18.49;52.23;99087.09;5030397;28;20486;-62
2023/03/23 10:30:41;;;;;;;6.95;4.60;;;;;;;18.50;52.26;99089.66;5030481;28;20042;-63
2023/03/23 10:33:31;;;;;;;7.28;5.38;;;;;;;18.51;52.36;99096.63;5029960;28;20025;-63
2023/03/23 10:36:03;;;;;;;7.82;4.95;;;;;;;18.50;52.44;99089.66;5030312;28;20160;-63
2023/03/23 10:38:37;;;;;;;6.88;4.68;;;;;;;18.52;52.32;99092.22;5030358;28;20528;-64
2023/03/23 10:41:17;;;;;;;11.75;5.00;;;;;;;18.53;52.31;99096.56;5030176;28;20034;-63
2023/03/23 10:43:44;;;;;;;8.38;5.20;;;;;;;18.54;52.53;99100.06;5048690;28;20519;-63
2023/03/23 10:46:25;;;;;;;8.65;5.70;;;;;;;18.56;52.24;99103.47;5072026;28;20048;-63
2023/03/23 10:48:52;;;;;;;7.82;5.07;;;;;;;18.55;52.13;99101.75;5072257;28;20507;-62
2023/03/23 10:51:22;;;;;;;8.88;4.75;;;;;;;18.57;52.34;99107.78;5071918;28;20071;-62
2023/03/23 10:53:56;;;;;;;11.38;5.38;;;;;;;18.59;52.33;99103.28;5072204;28;20488;-63
2023/03/23 10:56:40;;;;;;;10.38;4.80;;;;;;;18.60;52.66;99099.72;5075198;28;20045;-63
2023/03/23 10:59:20;;;;;;;9.02;5.13;;;;;;;18.61;52.44;99086.41;5092414;28;20436;-63
2023/03/23 11:01:50;;;;;;;9.85;5.53;;;;;;;18.62;52.61;99087.25;5091848;28;20020;-62
2023/03/23 11:04:17;;;;;;;8.50;5.45;;;;;;;18.63;52.40;99073.09;5090910;28;20081;-63
2023/03/23 11:06:52;;;;;;;9.88;5.20;;;;;;;18.64;52.60;99072.16;5091627;28;20081;-63
2023/03/23 11:09:20;;;;;;;7.03;5.13;;;;;;;18.65;52.74;99071.22;5092229;28;20030;-62
2023/03/23 11:11:55;;;;;;;9.75;6.05;;;;;;;18.65;52.43;99052.72;5092159;28;20020;-63
2023/03/23 11:14:37;;;;;;;7.72;5.90;;;;;;;18.67;52.47;99052.63;5092333;28;20024;-63
2023/03/23 11:17:06;;;;;;;10.48;5.20;;;;;;;18.67;52.46;99040.28;5092230;28;20090;-63
2023/03/23 11:19:35;;;;;;;9.15;6.00;;;;;;;18.68;52.67;99038.50;5092197;28;20024;-62
2023/03/23 11:22:06;;;;;;;8.60;5.30;;;;;;;18.69;52.65;99032.25;5092258;28;20047;-63
2023/03/23 11:24:47;;;;;;;9.20;5.60;;;;;;;18.71;52.43;99039.16;5092191;28;20552;-62
2023/03/23 11:27:15;;;;;;;10.23;6.05;;;;;;;18.72;52.61;99019.72;5090726;28;20431;-63
2023/03/23 11:29:56;;;;;;;7.72;5.75;;;;;;;18.73;52.84;99009.97;5091689;28;20035;-63
2023/03/23 11:32:31;;;;;;;8.20;5.20;;;;;;;18.73;52.79;99016.13;5092394;28;20133;-62
2023/03/23 11:35:04;;;;;;;7.82;5.22;;;;;;;18.74;52.68;99023.09;5092240;28;20024;-63
2023/03/23 11:37:32;;;;;;;6.10;4.50;;;;;;;18.75;52.89;99014.22;5092194;28;20031;-63
2023/03/23 11:40:15;;;;;;;7.78;5.10;;;;;;;18.76;52.82;99008.03;5092059;28;20055;-63
2023/03/23 11:42:44;;;;;;;8.13;5.68;;;;;;;18.77;52.98;99012.38;5092095;28;20027;-63
2023/03/23 11:45:27;;;;;;;6.55;4.95;;;;;;;18.78;52.70;99000.00;5091658;28;20480;-62